sensor_id;sensor_type;location;lat;lon;timestamp;pressure;altitude;pressure_sealevel;temperature;humidity
54540;BME280;40438;52.992;18.604;2022-09-03T00:01:05;101630.03;;;12.55;83.49
54540;BME280;40438;52.992;18.604;2022-09-03T00:03:38;101621.78;;;12.57;83.82
54540;BME280;40438;52.992;18.604;2022-09-03T00:06:10;101624.88;;;12.54;83.40
54540;BME280;40438;52.992;18.604;2022-09-03T00:08:42;101627.56;;;12.54;83.28
54540;BME280;40438;52.992;18.604;2022-09-03T00:11:12;101623.81;;;12.55;83.71
54540;BME280;40438;52.992;18.604;2022-09-03T00:13:43;101622.38;;;12.52;83.59
54540;BME280;40438;52.992;18.604;2022-09-03T00:16:15;101627.97;;;12.44;84.04
54540;BME280;40438;52.992;18.604;2022-09-03T00:18:45;101624.44;;;12.44;83.79
54540;BME280;40438;52.992;18.604;2022-09-03T00:21:15;101632.09;;;12.40;84.01
54540;BME280;40438;52.992;18.604;2022-09-03T00:23:43;101625.28;;;12.38;84.16
54540;BME280;40438;52.992;18.604;2022-09-03T00:26:20;101627.53;;;12.34;84.40
54540;BME280;40438;52.992;18.604;2022-09-03T00:28:51;101630.22;;;12.34;84.42
54540;BME280;40438;52.992;18.604;2022-09-03T00:31:26;101628.34;;;12.28;84.95
54540;BME280;40438;52.992;18.604;2022-09-03T00:33:56;101618.44;;;12.28;84.58
54540;BME280;40438;52.992;18.604;2022-09-03T00:36:27;101622.34;;;12.26;84.82
54540;BME280;40438;52.992;18.604;2022-09-03T00:38:56;101623.56;;;12.23;84.94
54540;BME280;40438;52.992;18.604;2022-09-03T00:41:29;101621.28;;;12.20;85.38
54540;BME280;40438;52.992;18.604;2022-09-03T00:46:50;101613.84;;;12.16;85.55
54540;BME280;40438;52.992;18.604;2022-09-03T00:49:30;101621.09;;;12.15;85.53
54540;BME280;40438;52.992;18.604;2022-09-03T00:52:06;101617.59;;;12.15;85.44
54540;BME280;40438;52.992;18.604;2022-09-03T00:54:40;101619.41;;;12.14;85.44
54540;BME280;40438;52.992;18.604;2022-09-03T00:57:20;101619.41;;;12.14;85.67
54540;BME280;40438;52.992;18.604;2022-09-03T00:59:52;101620.28;;;12.15;85.36
54540;BME280;40438;52.992;18.604;2022-09-03T01:02:28;101624.19;;;12.12;85.30
54540;BME280;40438;52.992;18.604;2022-09-03T01:05:02;101620.03;;;12.10;85.35
54540;BME280;40438;52.992;18.604;2022-09-03T01:07:38;101619.22;;;12.09;85.97
54540;BME280;40438;52.992;18.604;2022-09-03T01:10:14;101622.31;;;12.06;85.92
54540;BME280;40438;52.992;18.604;2022-09-03T01:12:48;101613.44;;;12.05;85.98
54540;BME280;40438;52.992;18.604;2022-09-03T01:15:21;101619.81;;;12.04;86.08
54540;BME280;40438;52.992;18.604;2022-09-03T01:18:01;101607.19;;;11.98;86.13
54540;BME280;40438;52.992;18.604;2022-09-03T01:20:45;101606.16;;;11.93;86.41
54540;BME280;40438;52.992;18.604;2022-09-03T01:26:19;101615.03;;;11.93;86.69
54540;BME280;40438;52.992;18.604;2022-09-03T01:28:57;101610.28;;;11.95;86.28
54540;BME280;40438;52.992;18.604;2022-09-03T01:31:33;101609.84;;;11.92;86.21
54540;BME280;40438;52.992;18.604;2022-09-03T01:34:09;101614.81;;;11.88;86.43
54540;BME280;40438;52.992;18.604;2022-09-03T01:36:43;101613.53;;;11.84;87.04
54540;BME280;40438;52.992;18.604;2022-09-03T01:39:12;101616.41;;;11.82;86.84
54540;BME280;40438;52.992;18.604;2022-09-03T01:41:50;101620.34;;;11.80;86.95
54540;BME280;40438;52.992;18.604;2022-09-03T01:44:32;101619.88;;;11.76;87.03
54540;BME280;40438;52.992;18.604;2022-09-03T01:47:08;101618.44;;;11.67;87.30
54540;BME280;40438;52.992;18.604;2022-09-03T01:49:40;101606.41;;;11.63;87.42
54540;BME280;40438;52.992;18.604;2022-09-03T01:52:12;101613.78;;;11.54;88.19
54540;BME280;40438;52.992;18.604;2022-09-03T01:54:52;101610.69;;;11.51;88.41
54540;BME280;40438;52.992;18.604;2022-09-03T01:57:41;101616.03;;;11.44;88.68
54540;BME280;40438;52.992;18.604;2022-09-03T02:00:13;101611.69;;;11.43;88.74
54540;BME280;40438;52.992;18.604;2022-09-03T02:02:40;101612.31;;;11.38;89.04
54540;BME280;40438;52.992;18.604;2022-09-03T02:05:09;101608.59;;;11.39;88.94
54540;BME280;40438;52.992;18.604;2022-09-03T02:07:37;101610.63;;;11.37;89.36
54540;BME280;40438;52.992;18.604;2022-09-03T02:10:06;101607.72;;;11.32;89.51
54540;BME280;40438;52.992;18.604;2022-09-03T02:12:35;101609.56;;;11.32;89.74
54540;BME280;40438;52.992;18.604;2022-09-03T02:15:02;101608.72;;;11.31;89.17
54540;BME280;40438;52.992;18.604;2022-09-03T02:17:31;101604.41;;;11.30;89.24
54540;BME280;40438;52.992;18.604;2022-09-03T02:20:03;101604.53;;;11.22;89.88
54540;BME280;40438;52.992;18.604;2022-09-03T02:22:31;101609.09;;;11.22;89.54
54540;BME280;40438;52.992;18.604;2022-09-03T02:24:57;101605.78;;;11.20;89.67
54540;BME280;40438;52.992;18.604;2022-09-03T02:27:23;101609.03;;;11.15;89.72
54540;BME280;40438;52.992;18.604;2022-09-03T02:29:49;101600.56;;;11.11;89.84
54540;BME280;40438;52.992;18.604;2022-09-03T02:32:15;101599.09;;;11.09;89.87
54540;BME280;40438;52.992;18.604;2022-09-03T02:34:42;101599.50;;;11.06;89.99
54540;BME280;40438;52.992;18.604;2022-09-03T02:37:12;101597.22;;;11.03;90.26
54540;BME280;40438;52.992;18.604;2022-09-03T02:39:38;101598.41;;;11.00;90.10
54540;BME280;40438;52.992;18.604;2022-09-03T02:42:04;101597.16;;;10.96;90.28
54540;BME280;40438;52.992;18.604;2022-09-03T02:44:30;101600.22;;;10.93;90.20
54540;BME280;40438;52.992;18.604;2022-09-03T02:47:01;101596.09;;;10.90;90.57
54540;BME280;40438;52.992;18.604;2022-09-03T02:49:28;101602.69;;;10.88;90.68
54540;BME280;40438;52.992;18.604;2022-09-03T02:51:59;101596.69;;;10.86;90.47
54540;BME280;40438;52.992;18.604;2022-09-03T02:54:25;101599.75;;;10.83;90.72
54540;BME280;40438;52.992;18.604;2022-09-03T02:56:51;101597.06;;;10.83;90.38
54540;BME280;40438;52.992;18.604;2022-09-03T02:59:17;101604.69;;;10.79;90.55
54540;BME280;40438;52.992;18.604;2022-09-03T03:01:42;101606.72;;;10.77;90.73
54540;BME280;40438;52.992;18.604;2022-09-03T03:04:08;101606.09;;;10.75;90.72
54540;BME280;40438;52.992;18.604;2022-09-03T03:06:34;101600.91;;;10.74;91.00
54540;BME280;40438;52.992;18.604;2022-09-03T03:09:01;101601.69;;;10.67;91.44
54540;BME280;40438;52.992;18.604;2022-09-03T03:11:27;101608.09;;;10.66;91.42
54540;BME280;40438;52.992;18.604;2022-09-03T03:13:52;101598.38;;;10.65;91.43
54540;BME280;40438;52.992;18.604;2022-09-03T03:16:18;101610.50;;;10.61;91.47
54540;BME280;40438;52.992;18.604;2022-09-03T03:18:44;101607.00;;;10.61;91.56
54540;BME280;40438;52.992;18.604;2022-09-03T03:21:12;101603.06;;;10.57;91.99
54540;BME280;40438;52.992;18.604;2022-09-03T03:23:38;101608.97;;;10.52;92.06
54540;BME280;40438;52.992;18.604;2022-09-03T03:26:07;101606.28;;;10.52;92.02
54540;BME280;40438;52.992;18.604;2022-09-03T03:28:33;101611.47;;;10.54;91.89
54540;BME280;40438;52.992;18.604;2022-09-03T03:31:04;101609.63;;;10.54;92.12
54540;BME280;40438;52.992;18.604;2022-09-03T03:33:30;101613.94;;;10.55;91.96
54540;BME280;40438;52.992;18.604;2022-09-03T03:35:56;101610.81;;;10.52;92.31
54540;BME280;40438;52.992;18.604;2022-09-03T03:38:21;101609.19;;;10.51;91.75
54540;BME280;40438;52.992;18.604;2022-09-03T03:40:47;101604.38;;;10.46;92.31
54540;BME280;40438;52.992;18.604;2022-09-03T03:43:14;101611.41;;;10.47;92.39
54540;BME280;40438;52.992;18.604;2022-09-03T03:45:40;101606.06;;;10.47;92.57
54540;BME280;40438;52.992;18.604;2022-09-03T03:48:06;101607.28;;;10.44;92.36
54540;BME280;40438;52.992;18.604;2022-09-03T03:50:31;101604.38;;;10.46;92.58
54540;BME280;40438;52.992;18.604;2022-09-03T03:52:58;101615.75;;;10.48;92.66
54540;BME280;40438;52.992;18.604;2022-09-03T03:55:24;101620.50;;;10.53;92.18
54540;BME280;40438;52.992;18.604;2022-09-03T03:57:49;101610.19;;;10.50;92.31
54540;BME280;40438;52.992;18.604;2022-09-03T04:00:17;101608.53;;;10.49;92.41
54540;BME280;40438;52.992;18.604;2022-09-03T04:02:43;101609.56;;;10.48;92.34
54540;BME280;40438;52.992;18.604;2022-09-03T04:05:08;101610.19;;;10.50;92.63
54540;BME280;40438;52.992;18.604;2022-09-03T04:07:34;101612.25;;;10.48;92.52
54540;BME280;40438;52.992;18.604;2022-09-03T04:10:00;101615.53;;;10.50;92.53
54540;BME280;40438;52.992;18.604;2022-09-03T04:12:26;101611.22;;;10.49;92.55
54540;BME280;40438;52.992;18.604;2022-09-03T04:14:51;101617.59;;;10.48;92.47
54540;BME280;40438;52.992;18.604;2022-09-03T04:17:18;101619.19;;;10.42;92.83
54540;BME280;40438;52.992;18.604;2022-09-03T04:19:44;101620.66;;;10.44;92.84
54540;BME280;40438;52.992;18.604;2022-09-03T04:22:10;101620.00;;;10.42;92.74
54540;BME280;40438;52.992;18.604;2022-09-03T04:24:36;101625.94;;;10.38;93.00
54540;BME280;40438;52.992;18.604;2022-09-03T04:27:01;101622.91;;;10.41;92.97
54540;BME280;40438;52.992;18.604;2022-09-03T04:29:27;101622.06;;;10.40;92.96
54540;BME280;40438;52.992;18.604;2022-09-03T04:31:53;101614.84;;;10.41;92.97
54540;BME280;40438;52.992;18.604;2022-09-03T04:34:20;101612.63;;;10.44;92.48
54540;BME280;40438;52.992;18.604;2022-09-03T04:36:45;101613.72;;;10.50;92.38
54540;BME280;40438;52.992;18.604;2022-09-03T04:39:11;101626.25;;;10.50;92.50
54540;BME280;40438;52.992;18.604;2022-09-03T04:41:37;101622.56;;;10.51;92.48
54540;BME280;40438;52.992;18.604;2022-09-03T04:44:02;101619.50;;;10.54;92.24
54540;BME280;40438;52.992;18.604;2022-09-03T04:46:28;101617.91;;;10.59;91.66
54540;BME280;40438;52.992;18.604;2022-09-03T04:48:54;101615.84;;;10.61;91.59
54540;BME280;40438;52.992;18.604;2022-09-03T04:51:23;101627.66;;;10.67;91.44
54540;BME280;40438;52.992;18.604;2022-09-03T04:53:53;101628.53;;;10.74;91.17
54540;BME280;40438;52.992;18.604;2022-09-03T04:56:20;101625.28;;;10.79;91.22
54540;BME280;40438;52.992;18.604;2022-09-03T04:58:47;101623.06;;;10.82;90.69
54540;BME280;40438;52.992;18.604;2022-09-03T05:01:15;101623.28;;;10.87;90.43
54540;BME280;40438;52.992;18.604;2022-09-03T05:03:42;101623.28;;;10.87;90.06
54540;BME280;40438;52.992;18.604;2022-09-03T05:06:08;101622.72;;;10.92;89.65
54540;BME280;40438;52.992;18.604;2022-09-03T05:08:35;101624.19;;;10.95;89.30
54540;BME280;40438;52.992;18.604;2022-09-03T05:11:01;101620.06;;;10.99;88.99
54540;BME280;40438;52.992;18.604;2022-09-03T05:13:27;101626.91;;;11.01;88.61
54540;BME280;40438;52.992;18.604;2022-09-03T05:15:58;101628.56;;;11.02;88.37
54540;BME280;40438;52.992;18.604;2022-09-03T05:18:23;101630.66;;;11.07;88.46
54540;BME280;40438;52.992;18.604;2022-09-03T05:20:57;101625.53;;;11.12;88.33
54540;BME280;40438;52.992;18.604;2022-09-03T05:23:23;101629.72;;;11.21;87.95
54540;BME280;40438;52.992;18.604;2022-09-03T05:25:55;101633.03;;;11.23;87.73
54540;BME280;40438;52.992;18.604;2022-09-03T05:28:21;101633.66;;;11.25;87.47
54540;BME280;40438;52.992;18.604;2022-09-03T05:30:57;101638.84;;;11.27;87.67
54540;BME280;40438;52.992;18.604;2022-09-03T05:33:23;101640.91;;;11.31;87.42
54540;BME280;40438;52.992;18.604;2022-09-03T05:35:48;101635.38;;;11.33;87.30
54540;BME280;40438;52.992;18.604;2022-09-03T05:38:14;101635.00;;;11.43;87.24
54540;BME280;40438;52.992;18.604;2022-09-03T05:40:40;101627.19;;;11.48;86.77
54540;BME280;40438;52.992;18.604;2022-09-03T05:43:07;101636.91;;;11.49;87.17
54540;BME280;40438;52.992;18.604;2022-09-03T05:45:33;101641.66;;;11.53;86.89
54540;BME280;40438;52.992;18.604;2022-09-03T05:47:59;101644.38;;;11.60;86.98
54540;BME280;40438;52.992;18.604;2022-09-03T05:50:25;101635.75;;;11.65;86.91
54540;BME280;40438;52.992;18.604;2022-09-03T05:52:50;101644.44;;;11.73;86.62
54540;BME280;40438;52.992;18.604;2022-09-03T05:55:16;101642.81;;;11.79;86.67
54540;BME280;40438;52.992;18.604;2022-09-03T05:57:42;101645.75;;;11.84;86.58
54540;BME280;40438;52.992;18.604;2022-09-03T06:00:10;101638.13;;;11.88;86.45
54540;BME280;40438;52.992;18.604;2022-09-03T06:02:37;101636.31;;;11.95;85.38
54540;BME280;40438;52.992;18.604;2022-09-03T06:05:03;101639.41;;;11.98;85.24
54540;BME280;40438;52.992;18.604;2022-09-03T06:07:29;101635.09;;;12.04;85.19
54540;BME280;40438;52.992;18.604;2022-09-03T06:09:55;101642.34;;;12.10;84.64
54540;BME280;40438;52.992;18.604;2022-09-03T06:12:20;101651.25;;;12.17;84.65
54540;BME280;40438;52.992;18.604;2022-09-03T06:14:46;101638.44;;;12.19;83.81
54540;BME280;40438;52.992;18.604;2022-09-03T06:17:13;101642.19;;;12.25;82.90
54540;BME280;40438;52.992;18.604;2022-09-03T06:19:39;101646.13;;;12.29;83.43
54540;BME280;40438;52.992;18.604;2022-09-03T06:22:05;101648.63;;;12.37;83.36
54540;BME280;40438;52.992;18.604;2022-09-03T06:24:30;101641.59;;;12.43;82.03
54540;BME280;40438;52.992;18.604;2022-09-03T06:26:56;101647.81;;;12.50;81.57
54540;BME280;40438;52.992;18.604;2022-09-03T06:29:22;101653.38;;;12.55;81.56
54540;BME280;40438;52.992;18.604;2022-09-03T06:31:48;101655.06;;;12.63;81.59
54540;BME280;40438;52.992;18.604;2022-09-03T06:34:15;101656.94;;;12.69;81.37
54540;BME280;40438;52.992;18.604;2022-09-03T06:36:41;101647.19;;;12.74;81.21
54540;BME280;40438;52.992;18.604;2022-09-03T06:39:07;101646.38;;;12.81;81.10
54540;BME280;40438;52.992;18.604;2022-09-03T06:41:32;101649.91;;;12.88;80.78
54540;BME280;40438;52.992;18.604;2022-09-03T06:44:00;101660.66;;;13.01;80.08
54540;BME280;40438;52.992;18.604;2022-09-03T06:46:28;101654.03;;;13.04;79.65
54540;BME280;40438;52.992;18.604;2022-09-03T06:48:54;101646.78;;;13.11;79.50
54540;BME280;40438;52.992;18.604;2022-09-03T06:51:22;101652.16;;;13.17;79.12
54540;BME280;40438;52.992;18.604;2022-09-03T06:53:49;101659.59;;;13.29;78.11
54540;BME280;40438;52.992;18.604;2022-09-03T06:56:17;101649.28;;;13.32;77.83
54540;BME280;40438;52.992;18.604;2022-09-03T06:58:45;101642.84;;;13.40;76.59
54540;BME280;40438;52.992;18.604;2022-09-03T07:01:13;101644.88;;;13.51;76.20
54540;BME280;40438;52.992;18.604;2022-09-03T07:03:41;101639.25;;;13.59;76.27
54540;BME280;40438;52.992;18.604;2022-09-03T07:06:09;101638.38;;;13.72;74.46
54540;BME280;40438;52.992;18.604;2022-09-03T07:08:36;101640.03;;;13.80;74.81
54540;BME280;40438;52.992;18.604;2022-09-03T07:11:04;101634.63;;;13.86;73.89
54540;BME280;40438;52.992;18.604;2022-09-03T07:13:29;101626.28;;;13.94;73.58
54540;BME280;40438;52.992;18.604;2022-09-03T07:15:59;101629.94;;;14.07;73.58
54540;BME280;40438;52.992;18.604;2022-09-03T07:18:25;101626.78;;;14.16;72.88
54540;BME280;40438;52.992;18.604;2022-09-03T07:20:51;101630.66;;;14.27;73.31
54540;BME280;40438;52.992;18.604;2022-09-03T07:23:16;101634.28;;;14.39;72.93
54540;BME280;40438;52.992;18.604;2022-09-03T07:25:51;101635.47;;;14.50;72.27
54540;BME280;40438;52.992;18.604;2022-09-03T07:28:17;101640.81;;;14.63;72.93
54540;BME280;40438;52.992;18.604;2022-09-03T07:30:43;101641.13;;;14.74;71.57
54540;BME280;40438;52.992;18.604;2022-09-03T07:33:09;101639.38;;;14.86;72.16
54540;BME280;40438;52.992;18.604;2022-09-03T07:35:35;101630.34;;;14.99;71.54
54540;BME280;40438;52.992;18.604;2022-09-03T07:38:01;101635.84;;;15.11;70.64
54540;BME280;40438;52.992;18.604;2022-09-03T07:40:27;101628.88;;;15.21;69.92
54540;BME280;40438;52.992;18.604;2022-09-03T07:42:57;101629.59;;;15.35;69.08
54540;BME280;40438;52.992;18.604;2022-09-03T07:45:22;101630.91;;;15.44;68.85
54540;BME280;40438;52.992;18.604;2022-09-03T07:47:48;101631.22;;;15.54;67.78
54540;BME280;40438;52.992;18.604;2022-09-03T07:50:14;101621.78;;;15.64;66.71
54540;BME280;40438;52.992;18.604;2022-09-03T07:52:40;101624.81;;;15.74;66.60
54540;BME280;40438;52.992;18.604;2022-09-03T07:55:07;101617.59;;;15.86;65.95
54540;BME280;40438;52.992;18.604;2022-09-03T07:57:33;101615.97;;;15.97;66.43
54540;BME280;40438;52.992;18.604;2022-09-03T08:00:00;101609.34;;;16.11;64.96
54540;BME280;40438;52.992;18.604;2022-09-03T08:02:26;101623.34;;;16.20;65.57
54540;BME280;40438;52.992;18.604;2022-09-03T08:04:51;101614.47;;;16.31;64.79
54540;BME280;40438;52.992;18.604;2022-09-03T08:07:17;101620.72;;;16.43;64.38
54540;BME280;40438;52.992;18.604;2022-09-03T08:09:43;101623.06;;;16.52;63.37
54540;BME280;40438;52.992;18.604;2022-09-03T08:12:08;101633.09;;;16.63;62.87
54540;BME280;40438;52.992;18.604;2022-09-03T08:14:34;101623.81;;;16.70;62.15
54540;BME280;40438;52.992;18.604;2022-09-03T08:17:01;101628.47;;;16.82;62.76
54540;BME280;40438;52.992;18.604;2022-09-03T08:19:27;101626.81;;;16.92;63.02
54540;BME280;40438;52.992;18.604;2022-09-03T08:21:53;101622.47;;;17.03;62.69
54540;BME280;40438;52.992;18.604;2022-09-03T08:24:18;101626.44;;;17.12;62.11
54540;BME280;40438;52.992;18.604;2022-09-03T08:26:44;101613.72;;;17.25;62.02
54540;BME280;40438;52.992;18.604;2022-09-03T08:29:10;101615.13;;;17.39;61.90
54540;BME280;40438;52.992;18.604;2022-09-03T08:31:36;101616.97;;;17.50;60.36
54540;BME280;40438;52.992;18.604;2022-09-03T08:34:05;101606.94;;;17.62;59.51
54540;BME280;40438;52.992;18.604;2022-09-03T08:36:33;101612.81;;;17.71;59.68
54540;BME280;40438;52.992;18.604;2022-09-03T08:39:01;101605.72;;;17.82;57.75
54540;BME280;40438;52.992;18.604;2022-09-03T08:41:34;101602.97;;;17.94;57.17
54540;BME280;40438;52.992;18.604;2022-09-03T08:44:12;101592.81;;;18.01;58.35
54540;BME280;40438;52.992;18.604;2022-09-03T08:46:51;101597.59;;;18.10;58.23
54540;BME280;40438;52.992;18.604;2022-09-03T08:49:23;101593.19;;;18.21;56.71
54540;BME280;40438;52.992;18.604;2022-09-03T08:51:53;101587.44;;;18.35;55.73
54540;BME280;40438;52.992;18.604;2022-09-03T08:54:23;101584.09;;;18.44;54.87
54540;BME280;40438;52.992;18.604;2022-09-03T08:56:50;101584.84;;;18.56;54.91
54540;BME280;40438;52.992;18.604;2022-09-03T08:59:16;101589.09;;;18.69;54.82
54540;BME280;40438;52.992;18.604;2022-09-03T09:01:48;101581.63;;;18.76;52.39
54540;BME280;40438;52.992;18.604;2022-09-03T09:04:26;101579.50;;;18.78;53.25
54540;BME280;40438;52.992;18.604;2022-09-03T09:06:59;101585.34;;;18.87;54.60
54540;BME280;40438;52.992;18.604;2022-09-03T09:09:34;101571.59;;;18.94;53.15
54540;BME280;40438;52.992;18.604;2022-09-03T09:12:12;101580.69;;;19.05;54.36
54540;BME280;40438;52.992;18.604;2022-09-03T09:14:44;101579.59;;;19.22;55.22
54540;BME280;40438;52.992;18.604;2022-09-03T09:17:27;101584.66;;;19.36;53.07
54540;BME280;40438;52.992;18.604;2022-09-03T09:20:05;101570.69;;;19.49;51.84
54540;BME280;40438;52.992;18.604;2022-09-03T09:22:36;101570.78;;;19.59;51.82
54540;BME280;40438;52.992;18.604;2022-09-03T09:25:07;101564.97;;;19.73;51.48
54540;BME280;40438;52.992;18.604;2022-09-03T09:27:35;101568.97;;;19.87;51.72
54540;BME280;40438;52.992;18.604;2022-09-03T09:30:03;101565.06;;;20.05;50.98
54540;BME280;40438;52.992;18.604;2022-09-03T09:32:30;101554.59;;;20.18;49.24
54540;BME280;40438;52.992;18.604;2022-09-03T09:34:57;101551.44;;;20.32;48.90
54540;BME280;40438;52.992;18.604;2022-09-03T09:37:22;101547.16;;;20.41;48.72
54540;BME280;40438;52.992;18.604;2022-09-03T09:39:56;101546.50;;;20.61;49.16
54540;BME280;40438;52.992;18.604;2022-09-03T09:42:23;101542.81;;;20.77;47.77
54540;BME280;40438;52.992;18.604;2022-09-03T09:44:49;101537.44;;;20.93;49.24
54540;BME280;40438;52.992;18.604;2022-09-03T09:47:21;101533.97;;;21.07;46.75
54540;BME280;40438;52.992;18.604;2022-09-03T09:49:52;101529.66;;;21.17;46.28
54540;BME280;40438;52.992;18.604;2022-09-03T09:52:20;101532.19;;;21.33;46.85
54540;BME280;40438;52.992;18.604;2022-09-03T09:54:47;101526.56;;;21.55;46.39
54540;BME280;40438;52.992;18.604;2022-09-03T09:57:15;101520.06;;;21.67;44.58
54540;BME280;40438;52.992;18.604;2022-09-03T09:59:42;101523.63;;;21.83;45.79
54540;BME280;40438;52.992;18.604;2022-09-03T10:02:11;101517.09;;;21.99;45.03
54540;BME280;40438;52.992;18.604;2022-09-03T10:04:38;101513.28;;;22.15;43.73
54540;BME280;40438;52.992;18.604;2022-09-03T10:07:06;101513.59;;;22.34;44.31
54540;BME280;40438;52.992;18.604;2022-09-03T10:09:42;101500.72;;;22.45;40.84
54540;BME280;40438;52.992;18.604;2022-09-03T10:12:12;101499.13;;;22.23;39.66
54540;BME280;40438;52.992;18.604;2022-09-03T10:14:43;101510.03;;;22.29;41.96
54540;BME280;40438;52.992;18.604;2022-09-03T10:17:15;101500.47;;;22.46;41.95
54540;BME280;40438;52.992;18.604;2022-09-03T10:19:49;101506.47;;;22.59;41.32
54540;BME280;40438;52.992;18.604;2022-09-03T10:22:19;101500.13;;;22.79;39.87
54540;BME280;40438;52.992;18.604;2022-09-03T10:24:52;101489.69;;;22.91;39.06
54540;BME280;40438;52.992;18.604;2022-09-03T10:27:22;101493.16;;;23.17;39.69
54540;BME280;40438;52.992;18.604;2022-09-03T10:29:50;101499.06;;;23.39;40.07
54540;BME280;40438;52.992;18.604;2022-09-03T10:32:24;101486.34;;;23.69;38.46
54540;BME280;40438;52.992;18.604;2022-09-03T10:35:03;101472.75;;;23.93;37.08
54540;BME280;40438;52.992;18.604;2022-09-03T10:37:36;101468.28;;;24.07;36.29
54540;BME280;40438;52.992;18.604;2022-09-03T10:40:24;101470.81;;;24.28;36.78
54540;BME280;40438;52.992;18.604;2022-09-03T10:42:59;101462.72;;;24.47;36.17
54540;BME280;40438;52.992;18.604;2022-09-03T10:45:36;101463.47;;;24.52;36.46
54540;BME280;40438;52.992;18.604;2022-09-03T10:48:32;101471.88;;;24.61;37.58
54540;BME280;40438;52.992;18.604;2022-09-03T10:51:04;101467.63;;;24.74;38.43
54540;BME280;40438;52.992;18.604;2022-09-03T10:53:42;101451.75;;;24.95;36.13
54540;BME280;40438;52.992;18.604;2022-09-03T10:56:20;101451.00;;;25.08;35.81
54540;BME280;40438;52.992;18.604;2022-09-03T10:59:02;101451.38;;;25.26;36.02
54540;BME280;40438;52.992;18.604;2022-09-03T11:01:34;101447.22;;;25.47;36.44
54540;BME280;40438;52.992;18.604;2022-09-03T11:04:16;101443.63;;;25.65;35.81
54540;BME280;40438;52.992;18.604;2022-09-03T11:06:49;101440.75;;;25.76;35.06
54540;BME280;40438;52.992;18.604;2022-09-03T11:09:19;101442.91;;;25.60;35.17
54540;BME280;40438;52.992;18.604;2022-09-03T11:11:54;101436.59;;;25.59;35.32
54540;BME280;40438;52.992;18.604;2022-09-03T11:14:29;101433.19;;;25.48;35.55
54540;BME280;40438;52.992;18.604;2022-09-03T11:17:00;101438.25;;;25.22;36.02
54540;BME280;40438;52.992;18.604;2022-09-03T11:19:33;101437.72;;;25.20;34.77
54540;BME280;40438;52.992;18.604;2022-09-03T11:22:00;101438.75;;;25.43;35.92
54540;BME280;40438;52.992;18.604;2022-09-03T11:24:28;101437.72;;;25.58;35.11
54540;BME280;40438;52.992;18.604;2022-09-03T11:27:09;101426.88;;;25.86;35.25
54540;BME280;40438;52.992;18.604;2022-09-03T11:29:42;101434.94;;;26.10;34.97
54540;BME280;40438;52.992;18.604;2022-09-03T11:32:16;101426.16;;;25.94;32.84
54540;BME280;40438;52.992;18.604;2022-09-03T11:34:44;101434.19;;;25.90;32.71
54540;BME280;40438;52.992;18.604;2022-09-03T11:37:19;101423.75;;;25.92;33.49
54540;BME280;40438;52.992;18.604;2022-09-03T11:39:53;101430.28;;;26.10;34.17
54540;BME280;40438;52.992;18.604;2022-09-03T11:42:27;101423.00;;;26.33;33.20
54540;BME280;40438;52.992;18.604;2022-09-03T11:44:59;101403.72;;;26.52;32.50
54540;BME280;40438;52.992;18.604;2022-09-03T11:47:37;101404.78;;;26.79;32.44
54540;BME280;40438;52.992;18.604;2022-09-03T11:50:06;101421.00;;;26.53;32.01
54540;BME280;40438;52.992;18.604;2022-09-03T11:52:32;101404.69;;;26.43;31.82
54540;BME280;40438;52.992;18.604;2022-09-03T11:54:58;101402.97;;;26.60;31.52
54540;BME280;40438;52.992;18.604;2022-09-03T11:57:27;101402.47;;;26.72;31.77
54540;BME280;40438;52.992;18.604;2022-09-03T11:59:54;101405.59;;;26.93;31.18
54540;BME280;40438;52.992;18.604;2022-09-03T12:02:31;101392.84;;;26.97;30.91
54540;BME280;40438;52.992;18.604;2022-09-03T12:05:13;101387.13;;;27.21;30.17
54540;BME280;40438;52.992;18.604;2022-09-03T12:10:42;101386.19;;;26.48;30.70
54540;BME280;40438;52.992;18.604;2022-09-03T12:13:24;101384.41;;;25.78;31.84
54540;BME280;40438;52.992;18.604;2022-09-03T12:16:11;101389.69;;;25.75;31.87
54540;BME280;40438;52.992;18.604;2022-09-03T12:18:40;101395.47;;;25.92;32.33
54540;BME280;40438;52.992;18.604;2022-09-03T12:21:07;101390.00;;;26.06;31.77
54540;BME280;40438;52.992;18.604;2022-09-03T12:23:38;101382.78;;;25.63;32.30
54540;BME280;40438;52.992;18.604;2022-09-03T12:26:07;101385.63;;;25.20;32.27
54540;BME280;40438;52.992;18.604;2022-09-03T12:28:36;101388.19;;;24.74;33.09
54540;BME280;40438;52.992;18.604;2022-09-03T12:31:08;101377.91;;;24.37;33.56
54540;BME280;40438;52.992;18.604;2022-09-03T12:33:34;101383.25;;;23.99;34.06
54540;BME280;40438;52.992;18.604;2022-09-03T12:36:07;101395.50;;;23.72;34.93
54540;BME280;40438;52.992;18.604;2022-09-03T12:38:34;101381.13;;;23.91;34.67
54540;BME280;40438;52.992;18.604;2022-09-03T12:40:59;101378.31;;;23.67;34.47
54540;BME280;40438;52.992;18.604;2022-09-03T12:43:27;101380.38;;;23.46;35.42
54540;BME280;40438;52.992;18.604;2022-09-03T12:45:55;101377.06;;;23.54;35.21
54540;BME280;40438;52.992;18.604;2022-09-03T12:48:21;101377.31;;;23.92;34.41
54540;BME280;40438;52.992;18.604;2022-09-03T12:50:48;101384.31;;;23.69;35.64
54540;BME280;40438;52.992;18.604;2022-09-03T12:53:20;101376.97;;;23.64;34.64
54540;BME280;40438;52.992;18.604;2022-09-03T12:55:49;101370.47;;;23.89;33.90
54540;BME280;40438;52.992;18.604;2022-09-03T12:58:18;101372.78;;;23.77;34.76
54540;BME280;40438;52.992;18.604;2022-09-03T13:00:49;101371.75;;;23.97;34.78